createdAt,value
2023-04-23T00:00:51.039Z,15.80
2023-04-23T00:03:43.273Z,15.80
2023-04-23T00:06:30.478Z,15.80
2023-04-23T00:09:17.699Z,15.80
2023-04-23T00:12:04.887Z,15.70
2023-04-23T00:14:52.024Z,15.60
2023-04-23T00:17:38.706Z,15.60
2023-04-23T00:20:26.901Z,15.50
2023-04-23T00:23:13.647Z,15.40
2023-04-23T00:26:00.274Z,15.30
2023-04-23T00:28:46.800Z,15.30
2023-04-23T00:31:33.270Z,15.40
2023-04-23T00:34:19.735Z,15.30
2023-04-23T00:37:08.050Z,15.20
2023-04-23T00:39:54.788Z,15.10
2023-04-23T00:42:41.821Z,15.10
2023-04-23T00:45:28.779Z,15.20
2023-04-23T00:48:15.836Z,15.10
2023-04-23T00:51:06.178Z,15.10
2023-04-23T00:53:53.936Z,15.20
2023-04-23T00:56:40.809Z,15.20
2023-04-23T00:59:27.971Z,15.10
2023-04-23T01:02:15.044Z,15.00
2023-04-23T01:05:04.928Z,15.00
2023-04-23T01:07:51.687Z,15.10
2023-04-23T01:10:39.472Z,15.10
2023-04-23T01:13:29.701Z,14.90
2023-04-23T01:16:16.716Z,15.00
2023-04-23T01:19:03.456Z,14.70
2023-04-23T01:21:51.571Z,14.60
2023-04-23T01:24:41.411Z,14.60
2023-04-23T01:27:28.270Z,14.50
2023-04-23T01:30:15.383Z,14.30
2023-04-23T01:33:02.921Z,14.20
2023-04-23T01:35:51.247Z,14.00
2023-04-23T01:38:39.874Z,14.20
2023-04-23T01:41:28.397Z,13.90
2023-04-23T01:44:14.697Z,13.90
2023-04-23T01:47:01.207Z,13.80
2023-04-23T01:49:47.812Z,13.70
2023-04-23T01:52:34.132Z,13.70
2023-04-23T01:55:20.920Z,13.70
2023-04-23T01:58:09.304Z,13.90
2023-04-23T02:00:56.203Z,13.60
2023-04-23T02:03:42.973Z,13.70
2023-04-23T02:06:29.931Z,13.60
2023-04-23T02:09:16.381Z,13.70
2023-04-23T02:12:02.786Z,13.60
2023-04-23T02:14:51.057Z,13.80
2023-04-23T02:17:37.595Z,13.80
2023-04-23T02:20:24.218Z,13.80
2023-04-23T02:23:10.989Z,13.80
2023-04-23T02:25:57.468Z,13.70
2023-04-23T02:28:44.000Z,13.60
2023-04-23T02:31:31.818Z,13.40
2023-04-23T02:34:19.183Z,13.50
2023-04-23T02:37:05.989Z,13.50
2023-04-23T02:39:52.479Z,13.40
2023-04-23T02:42:39.050Z,13.30
2023-04-23T02:45:26.237Z,13.30
2023-04-23T02:48:14.141Z,13.10
2023-04-23T02:51:00.645Z,11.20
2023-04-23T02:53:47.017Z,13.30
2023-04-23T02:56:33.483Z,13.00
2023-04-23T02:59:20.369Z,13.10
2023-04-23T03:02:06.857Z,13.10
2023-04-23T03:04:55.294Z,12.90
2023-04-23T03:07:42.038Z,13.10
2023-04-23T03:10:28.502Z,13.30
2023-04-23T03:13:14.958Z,13.20
2023-04-23T03:16:01.489Z,13.30
2023-04-23T03:18:47.975Z,13.40
2023-04-23T03:21:35.875Z,13.10
2023-04-23T03:24:23.000Z,14.20
2023-04-23T03:27:09.732Z,12.70
2023-04-23T03:29:55.993Z,12.60
2023-04-23T03:32:42.551Z,12.70
2023-04-23T03:35:29.067Z,12.30
2023-04-23T03:38:16.777Z,12.30
2023-04-23T03:41:03.163Z,12.30
2023-04-23T03:43:49.682Z,12.40
2023-04-23T03:46:36.138Z,12.40
2023-04-23T03:49:23.036Z,12.50
2023-04-23T03:52:09.387Z,12.50
2023-04-23T03:54:57.408Z,12.20
2023-04-23T03:57:44.088Z,12.40
2023-04-23T04:00:30.597Z,12.40
2023-04-23T04:03:17.612Z,12.50
2023-04-23T04:06:04.730Z,12.40
2023-04-23T04:08:51.156Z,12.40
2023-04-23T04:11:38.932Z,12.40
2023-04-23T04:14:25.726Z,12.50
2023-04-23T04:17:12.521Z,12.50
2023-04-23T04:19:59.220Z,12.60
2023-04-23T04:22:46.780Z,12.60
2023-04-23T04:25:33.513Z,12.60
2023-04-23T04:28:21.219Z,12.60
2023-04-23T04:31:08.648Z,12.60
2023-04-23T04:33:56.291Z,12.50
2023-04-23T04:36:43.357Z,12.50
2023-04-23T04:39:29.929Z,12.50
2023-04-23T04:42:16.702Z,12.50
2023-04-23T04:45:06.108Z,12.60
2023-04-23T04:47:53.432Z,12.30
2023-04-23T04:50:40.199Z,12.40
2023-04-23T04:53:26.530Z,12.20
2023-04-23T04:56:12.954Z,12.30
2023-04-23T04:58:59.358Z,12.30
2023-04-23T05:01:47.783Z,12.50
2023-04-23T05:04:34.329Z,12.50
2023-04-23T05:07:20.647Z,12.50
2023-04-23T05:10:08.305Z,12.50
2023-04-23T05:12:54.983Z,12.50
2023-04-23T05:15:41.423Z,12.50
2023-04-23T05:18:29.663Z,12.60
2023-04-23T05:21:16.821Z,12.50
2023-04-23T05:24:03.570Z,12.50
2023-04-23T05:26:49.995Z,12.60
2023-04-23T05:29:36.493Z,12.60
2023-04-23T05:32:22.804Z,12.60
2023-04-23T05:35:11.069Z,12.60
2023-04-23T05:37:57.797Z,12.50
2023-04-23T05:40:44.538Z,12.60
2023-04-23T05:43:31.189Z,12.70
2023-04-23T05:46:17.744Z,12.60
2023-04-23T05:49:04.180Z,12.70
2023-04-23T05:51:52.361Z,12.70
2023-04-23T05:54:39.268Z,12.70
2023-04-23T05:57:26.510Z,12.70
2023-04-23T06:00:13.859Z,12.80
2023-04-23T06:03:00.753Z,12.80
2023-04-23T06:05:47.792Z,12.80
2023-04-23T06:08:35.934Z,12.90
2023-04-23T06:11:22.666Z,13.00
2023-04-23T06:14:09.049Z,13.00
2023-04-23T06:16:55.387Z,12.80
2023-04-23T06:19:42.882Z,12.80
2023-04-23T06:22:29.705Z,12.90
2023-04-23T06:25:17.427Z,12.90
2023-04-23T06:28:04.057Z,13.00
2023-04-23T06:30:50.545Z,13.00
2023-04-23T06:33:37.496Z,13.00
2023-04-23T06:36:23.754Z,13.10
2023-04-23T06:39:10.518Z,13.20
2023-04-23T06:41:59.160Z,13.40
2023-04-23T06:44:47.015Z,13.40
2023-04-23T06:47:33.454Z,13.40
2023-04-23T06:50:20.391Z,13.30
2023-04-23T06:53:07.032Z,13.50
2023-04-23T06:55:53.355Z,13.60
2023-04-23T06:58:41.275Z,13.70
2023-04-23T07:01:28.105Z,13.60
2023-04-23T07:04:14.982Z,13.70
2023-04-23T07:07:01.525Z,13.80
2023-04-23T07:09:48.037Z,13.60
2023-04-23T07:12:34.492Z,13.70
2023-04-23T07:15:22.376Z,13.70
2023-04-23T07:18:09.850Z,13.80
2023-04-23T07:20:56.872Z,13.90
2023-04-23T07:23:43.302Z,13.90
2023-04-23T07:26:29.749Z,14.00
2023-04-23T07:29:16.274Z,14.00
2023-04-23T07:32:04.151Z,12.50
2023-04-23T07:34:51.447Z,14.20
2023-04-23T07:37:38.216Z,14.10
2023-04-23T07:40:25.618Z,14.30
2023-04-23T07:43:14.046Z,14.40
2023-04-23T07:46:00.864Z,14.40
2023-04-23T07:48:49.128Z,14.30
2023-04-23T07:51:36.248Z,14.30
2023-04-23T07:54:24.510Z,14.50
2023-04-23T07:57:12.505Z,14.70
2023-04-23T07:59:59.082Z,14.80
2023-04-23T08:02:45.816Z,14.90
2023-04-23T08:05:34.231Z,14.80
2023-04-23T08:08:21.228Z,14.90
2023-04-23T08:11:07.755Z,15.00
2023-04-23T08:13:54.467Z,15.10
2023-04-23T08:16:40.956Z,15.10
2023-04-23T08:19:31.673Z,15.20
2023-04-23T08:22:20.360Z,15.30
2023-04-23T08:25:08.581Z,15.20
2023-04-23T08:27:55.012Z,15.30
2023-04-23T08:30:41.410Z,15.40
2023-04-23T08:33:27.899Z,15.40
2023-04-23T08:36:15.284Z,15.50
2023-04-23T08:39:04.129Z,15.60
2023-04-23T08:41:56.494Z,15.70
2023-04-23T08:44:43.913Z,15.90
2023-04-23T08:47:33.297Z,16.10
2023-04-23T08:50:20.925Z,16.30
2023-04-23T08:53:08.012Z,16.30
2023-04-23T08:55:56.719Z,16.40
2023-04-23T08:58:44.106Z,16.50
2023-04-23T09:01:31.773Z,16.70
2023-04-23T09:04:20.453Z,16.80
2023-04-23T09:07:11.426Z,16.80
2023-04-23T09:09:58.282Z,17.00
2023-04-23T09:12:48.054Z,16.90
2023-04-23T09:15:36.874Z,16.90
2023-04-23T09:18:23.513Z,17.10
2023-04-23T09:21:10.896Z,17.30
2023-04-23T09:23:57.686Z,17.50
2023-04-23T09:26:48.707Z,17.60
2023-04-23T09:29:36.650Z,17.80
2023-04-23T09:32:32.816Z,17.70
2023-04-23T09:35:21.062Z,18.00
2023-04-23T09:38:10.552Z,18.00
2023-04-23T09:40:57.534Z,17.90
2023-04-23T09:43:44.059Z,18.20
2023-04-23T09:46:39.940Z,18.30
2023-04-23T09:49:26.708Z,18.30
2023-04-23T09:52:13.122Z,18.30
2023-04-23T09:54:59.919Z,18.30
2023-04-23T09:57:48.288Z,18.50
2023-04-23T10:00:36.418Z,18.70
2023-04-23T10:03:29.521Z,19.00
2023-04-23T10:06:30.582Z,18.90
2023-04-23T10:09:24.671Z,19.10
2023-04-23T10:12:29.588Z,19.20
2023-04-23T10:15:19.616Z,19.30
2023-04-23T10:18:08.014Z,19.40
2023-04-23T10:20:56.203Z,19.20
2023-04-23T10:23:45.335Z,19.50
2023-04-23T10:26:34.146Z,20.10
2023-04-23T10:29:24.652Z,19.80
2023-04-23T10:32:11.648Z,19.50
2023-04-23T10:34:58.192Z,19.50
2023-04-23T10:37:48.142Z,19.50
2023-04-23T10:40:37.688Z,19.60
2023-04-23T10:43:25.972Z,19.60
2023-04-23T10:46:30.491Z,19.70
2023-04-23T10:49:17.273Z,19.40
2023-04-23T10:52:19.607Z,19.20
2023-04-23T10:55:18.563Z,19.10
2023-04-23T10:58:06.743Z,19.30
2023-04-23T11:00:53.702Z,19.20
2023-04-23T11:03:44.354Z,19.30
2023-04-23T11:06:55.071Z,19.50
2023-04-23T11:09:44.602Z,19.70
2023-04-23T11:12:35.922Z,19.90
2023-04-23T11:15:22.770Z,19.80
2023-04-23T11:18:09.456Z,19.70
2023-04-23T11:20:58.075Z,19.50
2023-04-23T11:23:47.499Z,19.40
2023-04-23T11:26:36.033Z,19.60
2023-04-23T11:29:26.075Z,19.40
2023-04-23T11:32:14.457Z,20.10
2023-04-23T11:35:05.257Z,19.30
2023-04-23T11:37:52.096Z,19.00
2023-04-23T11:40:40.471Z,18.90
2023-04-23T11:43:29.284Z,18.70
2023-04-23T11:46:17.797Z,18.70
2023-04-23T11:49:04.670Z,18.90
2023-04-23T11:51:51.375Z,19.00
2023-04-23T11:54:40.692Z,19.10
2023-04-23T11:57:27.758Z,19.60
2023-04-23T12:00:17.189Z,19.90
2023-04-23T12:03:07.205Z,20.10
2023-04-23T12:05:55.978Z,20.20
2023-04-23T12:08:43.270Z,19.80
2023-04-23T12:11:29.636Z,19.60
2023-04-23T12:14:18.033Z,19.30
2023-04-23T12:17:11.134Z,19.00
2023-04-23T12:19:59.258Z,18.80
2023-04-23T12:22:45.668Z,18.40
2023-04-23T12:25:33.636Z,18.20
2023-04-23T12:28:24.432Z,18.10
2023-04-23T12:31:11.081Z,17.90
2023-04-23T12:34:04.862Z,17.70
2023-04-23T12:36:55.166Z,17.70
2023-04-23T12:39:42.097Z,17.60
2023-04-23T12:42:28.774Z,17.50
2023-04-23T12:45:15.358Z,17.50
2023-04-23T12:48:01.673Z,17.60
2023-04-23T12:50:49.275Z,18.00
2023-04-23T12:53:36.959Z,18.60
2023-04-23T12:56:23.679Z,18.90
2023-04-23T12:59:10.305Z,19.00
2023-04-23T13:01:57.394Z,19.00
2023-04-23T13:04:43.857Z,18.60
2023-04-23T13:07:30.684Z,19.20
2023-04-23T13:10:18.809Z,19.50
2023-04-23T13:13:05.532Z,19.50
2023-04-23T13:15:52.050Z,19.50
2023-04-23T13:18:38.379Z,19.60
2023-04-23T13:21:26.220Z,19.70
2023-04-23T13:24:13.492Z,19.70
2023-04-23T13:27:02.093Z,20.20
2023-04-23T13:29:48.835Z,20.30
2023-04-23T13:32:35.334Z,20.10
2023-04-23T13:35:22.223Z,19.80
2023-04-23T13:38:08.698Z,19.60
2023-04-23T13:40:55.436Z,19.30
2023-04-23T13:43:43.796Z,19.00
2023-04-23T13:46:30.941Z,18.70
2023-04-23T13:49:18.029Z,18.70
2023-04-23T13:52:06.967Z,19.40
2023-04-23T13:54:54.851Z,19.70
2023-04-23T13:57:41.752Z,19.80
2023-04-23T14:00:31.131Z,19.90
2023-04-23T14:03:17.897Z,20.00
2023-04-23T14:06:04.708Z,20.20
2023-04-23T14:08:51.272Z,20.00
2023-04-23T14:11:39.635Z,20.20
2023-04-23T14:14:26.315Z,20.30
2023-04-23T14:17:14.679Z,20.00
2023-04-23T14:20:01.881Z,20.00
2023-04-23T14:22:51.772Z,20.10
2023-04-23T14:25:42.596Z,20.20
2023-04-23T14:28:34.434Z,20.10
2023-04-23T14:31:21.548Z,20.10
2023-04-23T14:34:10.105Z,20.00
2023-04-23T14:36:57.102Z,20.20
2023-04-23T14:39:44.027Z,20.40
2023-04-23T14:42:31.527Z,20.90
2023-04-23T14:45:19.157Z,21.10
2023-04-23T14:48:06.251Z,21.20
2023-04-23T14:50:54.274Z,21.20
2023-04-23T14:53:41.073Z,21.10
2023-04-23T14:56:27.840Z,21.30
2023-04-23T14:59:15.155Z,21.30
2023-04-23T15:02:02.877Z,21.20
2023-04-23T15:04:51.412Z,21.70
2023-04-23T15:07:40.447Z,22.00
2023-04-23T15:10:27.610Z,21.80
2023-04-23T15:13:38.326Z,22.00
2023-04-23T15:19:21.116Z,22.20
2023-04-23T15:22:07.747Z,22.50
2023-04-23T15:24:55.435Z,22.20
2023-04-23T15:27:42.016Z,22.00
2023-04-23T15:30:29.628Z,21.80
2023-04-23T15:33:17.674Z,21.40
2023-04-23T15:36:05.171Z,21.40
2023-04-23T15:38:51.900Z,21.20
2023-04-23T15:41:41.362Z,21.00
2023-04-23T15:44:28.992Z,20.90
2023-04-23T15:47:15.414Z,20.70
2023-04-23T15:50:02.434Z,20.70
2023-04-23T15:52:50.433Z,20.70
2023-04-23T15:55:38.943Z,20.60
2023-04-23T15:58:27.025Z,20.40
2023-04-23T16:01:13.786Z,20.40
2023-04-23T16:06:50.313Z,20.20
2023-04-23T16:09:36.755Z,20.20
2023-04-23T16:12:23.262Z,20.20
2023-04-23T16:18:03.443Z,19.50
2023-04-23T16:20:50.206Z,18.40
2023-04-23T16:23:36.569Z,18.00
2023-04-23T16:26:23.149Z,17.40
2023-04-23T16:29:21.449Z,17.60
2023-04-23T16:32:10.425Z,17.50
2023-04-23T16:34:57.123Z,17.40
2023-04-23T16:37:43.588Z,17.40
2023-04-23T16:40:29.973Z,17.40
2023-04-23T16:43:16.469Z,17.10
2023-04-23T16:46:02.822Z,17.00
2023-04-23T16:48:50.911Z,17.00
2023-04-23T16:51:37.357Z,17.10
2023-04-23T16:54:24.210Z,17.20
2023-04-23T16:57:11.522Z,17.10
2023-04-23T16:59:58.203Z,17.10
2023-04-23T17:02:44.855Z,17.10
2023-04-23T17:05:35.607Z,16.70
2023-04-23T17:08:22.385Z,16.90
2023-04-23T17:11:09.023Z,17.00
2023-04-23T17:13:56.504Z,17.10
2023-04-23T17:16:44.528Z,17.20
2023-04-23T17:19:31.170Z,17.00
2023-04-23T17:22:19.158Z,16.60
2023-04-23T17:25:07.140Z,16.70
2023-04-23T17:27:54.565Z,16.80
2023-04-23T17:30:40.974Z,16.90
2023-04-23T17:33:27.796Z,16.90
2023-04-23T17:36:14.225Z,17.00
2023-04-23T17:39:02.404Z,16.90
2023-04-23T17:41:49.199Z,17.00
2023-04-23T17:44:36.024Z,17.00
2023-04-23T17:47:22.440Z,17.00
2023-04-23T17:50:11.655Z,17.00
2023-04-23T17:53:02.065Z,17.00
2023-04-23T17:55:49.944Z,16.90
2023-04-23T17:58:38.199Z,16.90
2023-04-23T18:01:25.785Z,16.90
2023-04-23T18:04:13.441Z,16.80
2023-04-23T18:07:01.215Z,16.80
2023-04-23T18:09:47.703Z,16.70
2023-04-23T18:12:36.176Z,16.70
2023-04-23T18:15:22.955Z,16.70
2023-04-23T18:18:09.875Z,16.70
2023-04-23T18:20:57.053Z,16.60
2023-04-23T18:23:43.558Z,16.50
2023-04-23T18:26:29.891Z,16.60
2023-04-23T18:29:17.704Z,16.50
2023-04-23T18:32:04.595Z,16.50
2023-04-23T18:34:51.413Z,16.50
2023-04-23T18:37:42.862Z,16.50
2023-04-23T18:40:29.660Z,16.50
2023-04-23T18:43:16.462Z,16.40
2023-04-23T18:46:04.671Z,16.40
2023-04-23T18:48:59.952Z,16.40
2023-04-23T18:51:51.821Z,16.30
2023-04-23T18:54:38.848Z,16.30
2023-04-23T18:57:26.313Z,16.30
2023-04-23T19:00:14.443Z,16.30
2023-04-23T19:03:06.651Z,16.30
2023-04-23T19:05:55.988Z,16.30
2023-04-23T19:08:42.558Z,16.20
2023-04-23T19:11:34.114Z,16.20
2023-04-23T19:14:20.720Z,16.20
2023-04-23T19:17:07.289Z,16.20
2023-04-23T19:19:55.076Z,16.10
2023-04-23T19:22:42.266Z,16.10
2023-04-23T19:25:28.829Z,16.00
2023-04-23T19:28:15.266Z,15.90
2023-04-23T19:31:01.976Z,15.90
2023-04-23T19:33:48.421Z,16.00
2023-04-23T19:36:36.128Z,16.00
2023-04-23T19:39:23.621Z,16.00
2023-04-23T19:42:10.790Z,15.80
2023-04-23T19:44:57.401Z,15.80
2023-04-23T19:47:43.960Z,15.90
2023-04-23T19:50:30.569Z,15.90
2023-04-23T19:53:18.628Z,15.80
2023-04-23T19:56:08.415Z,15.70
2023-04-23T19:58:54.995Z,15.80
2023-04-23T20:01:41.490Z,15.80
2023-04-23T20:04:27.890Z,15.70
2023-04-23T20:07:14.697Z,15.70
2023-04-23T20:10:02.653Z,15.70
2023-04-23T20:12:49.387Z,15.60
2023-04-23T20:15:36.814Z,15.50
2023-04-23T20:18:25.604Z,15.20
2023-04-23T20:21:12.396Z,15.10
2023-04-23T20:23:58.906Z,14.90
2023-04-23T20:26:47.114Z,14.70
2023-04-23T20:29:33.842Z,14.50
2023-04-23T20:32:20.114Z,14.40
2023-04-23T20:35:07.423Z,14.50
2023-04-23T20:37:55.495Z,14.60
2023-04-23T20:40:42.285Z,14.70
2023-04-23T20:43:30.286Z,14.70
2023-04-23T20:46:16.740Z,14.70
2023-04-23T20:49:04.210Z,14.70
2023-04-23T20:51:50.717Z,14.70
2023-04-23T20:54:37.156Z,14.70
2023-04-23T20:57:23.665Z,14.70
2023-04-23T21:00:12.837Z,14.70
2023-04-23T21:02:59.528Z,14.70
2023-04-23T21:05:46.168Z,14.60
2023-04-23T21:08:32.781Z,14.60
2023-04-23T21:11:21.241Z,14.60
2023-04-23T21:14:08.946Z,14.60
2023-04-23T21:16:56.938Z,14.50
2023-04-23T21:19:43.656Z,14.50
2023-04-23T21:22:31.600Z,14.50
2023-04-23T21:25:18.349Z,14.90
2023-04-23T21:28:05.414Z,14.50
2023-04-23T21:30:53.290Z,14.40
2023-04-23T21:33:41.178Z,14.40
2023-04-23T21:36:28.447Z,14.40
2023-04-23T21:39:15.195Z,14.30
2023-04-23T21:42:01.928Z,14.30
2023-04-23T21:44:48.317Z,14.30
2023-04-23T21:47:34.747Z,14.20
2023-04-23T21:50:23.272Z,14.20
2023-04-23T21:53:09.842Z,14.20
2023-04-23T21:55:56.348Z,14.20
2023-04-23T21:58:42.666Z,14.10
2023-04-23T22:01:29.480Z,14.10
2023-04-23T22:04:17.819Z,14.20
2023-04-23T22:07:08.660Z,14.10
2023-04-23T22:09:57.140Z,14.10
2023-04-23T22:12:44.612Z,14.10
2023-04-23T22:15:31.469Z,14.00
2023-04-23T22:18:17.916Z,14.10
2023-04-23T22:21:04.445Z,14.10
2023-04-23T22:23:52.244Z,14.10
2023-04-23T22:26:39.046Z,14.10
2023-04-23T22:29:25.444Z,14.10
2023-04-23T22:32:12.041Z,14.10
2023-04-23T22:34:59.414Z,14.10
2023-04-23T22:37:46.366Z,14.20
2023-04-23T22:40:34.458Z,14.20
2023-04-23T22:43:21.119Z,14.20
2023-04-23T22:46:07.675Z,14.10
2023-04-23T22:48:54.774Z,14.10
2023-04-23T22:51:42.039Z,14.20
2023-04-23T22:54:28.373Z,14.10
2023-04-23T22:57:16.009Z,14.10
2023-04-23T23:00:05.126Z,14.00
2023-04-23T23:02:52.686Z,14.10
2023-04-23T23:05:39.398Z,14.10
2023-04-23T23:08:25.842Z,14.20
2023-04-23T23:11:12.290Z,14.00
2023-04-23T23:14:00.167Z,14.00
2023-04-23T23:16:46.882Z,14.10
2023-04-23T23:19:33.290Z,14.00
2023-04-23T23:22:19.656Z,13.90
2023-04-23T23:25:07.852Z,13.90
2023-04-23T23:27:54.870Z,14.00
2023-04-23T23:30:42.876Z,13.90
2023-04-23T23:33:29.969Z,13.90
2023-04-23T23:36:16.474Z,13.90
2023-04-23T23:39:02.781Z,13.90
2023-04-23T23:41:49.234Z,13.90
2023-04-23T23:44:36.310Z,13.70
2023-04-23T23:47:24.415Z,13.80
2023-04-23T23:50:11.742Z,13.70
2023-04-23T23:52:58.117Z,13.70
2023-04-23T23:55:44.544Z,13.60
2023-04-23T23:58:31.166Z,13.70
